createdAt,value
2019-02-27T00:00:15.877Z,45.70
2019-02-27T00:01:06.931Z,47.75
2019-02-27T00:01:49.686Z,46.60
2019-02-27T00:02:25.876Z,42.80
2019-02-27T00:03:01.274Z,44.40
2019-02-27T00:03:36.708Z,41.10
2019-02-27T00:04:12.702Z,46.13
2019-02-27T00:04:48.090Z,48.35
2019-02-27T00:05:23.586Z,45.00
2019-02-27T00:05:58.935Z,47.70
2019-02-27T00:06:34.366Z,49.27
2019-02-27T00:07:09.978Z,50.35
2019-02-27T00:07:45.429Z,45.08
2019-02-27T00:08:20.965Z,56.28
2019-02-27T00:08:57.877Z,53.00
2019-02-27T00:09:33.508Z,55.58
2019-02-27T00:10:09.003Z,56.42
2019-02-27T00:10:44.334Z,51.35
2019-02-27T00:11:19.653Z,52.38
2019-02-27T00:11:55.212Z,45.85
2019-02-27T00:12:30.630Z,58.50
2019-02-27T00:13:06.049Z,51.77
2019-02-27T00:13:41.382Z,49.65
2019-02-27T00:14:16.797Z,53.00
2019-02-27T00:14:52.357Z,50.23
2019-02-27T00:15:27.749Z,48.87
2019-02-27T00:16:03.293Z,47.43
2019-02-27T00:16:38.727Z,46.05
2019-02-27T00:17:17.750Z,54.77
2019-02-27T00:17:52.038Z,53.05
2019-02-27T00:18:27.691Z,51.13
2019-02-27T00:19:03.190Z,47.30
2019-02-27T00:19:38.786Z,52.78
2019-02-27T00:20:14.389Z,55.75
2019-02-27T00:20:49.801Z,52.38
2019-02-27T00:21:25.242Z,50.03
2019-02-27T00:22:00.671Z,53.85
2019-02-27T00:22:36.105Z,54.77
2019-02-27T00:23:11.637Z,56.33
2019-02-27T00:23:47.171Z,52.88
2019-02-27T00:24:22.721Z,49.20
2019-02-27T00:24:58.280Z,60.40
2019-02-27T00:25:35.913Z,52.13
2019-02-27T00:26:10.942Z,57.08
2019-02-27T00:26:46.482Z,50.03
2019-02-27T00:27:22.025Z,49.30
2019-02-27T00:27:57.446Z,50.85
2019-02-27T00:28:32.873Z,53.40
2019-02-27T00:29:08.287Z,48.78
2019-02-27T00:29:43.846Z,57.45
2019-02-27T00:30:19.262Z,48.25
2019-02-27T00:30:54.785Z,53.55
2019-02-27T00:31:31.283Z,54.38
2019-02-27T00:32:07.069Z,53.10
2019-02-27T00:32:42.490Z,56.58
2019-02-27T00:33:17.830Z,47.83
2019-02-27T00:33:53.321Z,47.88
2019-02-27T00:34:32.808Z,52.00
2019-02-27T00:35:07.370Z,46.40
2019-02-27T00:35:42.838Z,45.45
2019-02-27T00:36:18.219Z,48.05
2019-02-27T00:36:53.469Z,49.13
2019-02-27T00:37:28.728Z,44.48
2019-02-27T00:38:04.267Z,41.85
2019-02-27T00:38:39.886Z,46.00
2019-02-27T00:39:15.473Z,45.00
2019-02-27T00:39:51.098Z,44.03
2019-02-27T00:40:26.687Z,45.48
2019-02-27T00:41:02.226Z,42.00
2019-02-27T00:41:37.639Z,43.50
2019-02-27T00:42:13.005Z,41.88
2019-02-27T00:42:48.424Z,46.58
2019-02-27T00:43:25.979Z,43.33
2019-02-27T00:44:01.945Z,40.38
2019-02-27T00:44:37.571Z,44.65
2019-02-27T00:45:13.025Z,40.30
2019-02-27T00:45:48.340Z,42.88
2019-02-27T00:46:23.960Z,41.55
2019-02-27T00:46:59.399Z,41.23
2019-02-27T00:47:34.919Z,39.95
2019-02-27T00:48:10.359Z,41.73
2019-02-27T00:48:45.893Z,40.90
2019-02-27T00:49:21.211Z,39.42
2019-02-27T00:49:56.633Z,42.08
2019-02-27T00:50:32.236Z,40.20
2019-02-27T00:51:09.637Z,41.28
2019-02-27T00:51:45.400Z,39.92
2019-02-27T00:52:20.831Z,41.88
2019-02-27T00:52:56.259Z,40.65
2019-02-27T00:53:31.590Z,40.67
2019-02-27T00:54:06.919Z,38.75
2019-02-27T00:54:42.592Z,39.23
2019-02-27T00:55:18.147Z,40.12
2019-02-27T00:55:53.415Z,41.58
2019-02-27T00:56:28.849Z,42.30
2019-02-27T00:57:04.265Z,43.30
2019-02-27T00:57:39.797Z,39.92
2019-02-27T00:58:15.325Z,38.33
2019-02-27T00:58:50.851Z,39.95
2019-02-27T00:59:26.530Z,43.75
2019-02-27T01:00:06.243Z,42.40
2019-02-27T01:00:39.371Z,41.23
2019-02-27T01:01:15.588Z,44.33
2019-02-27T01:01:51.107Z,41.80
2019-02-27T01:02:26.675Z,43.50
2019-02-27T01:03:02.186Z,39.95
2019-02-27T01:03:37.606Z,38.50
2019-02-27T01:04:13.150Z,42.05
2019-02-27T01:04:48.476Z,38.17
2019-02-27T01:05:23.955Z,42.25
2019-02-27T01:05:59.543Z,37.65
2019-02-27T01:06:34.977Z,42.17
2019-02-27T01:07:10.299Z,40.95
2019-02-27T01:07:45.711Z,42.17
2019-02-27T01:08:21.058Z,41.23
2019-02-27T01:08:56.604Z,41.75
2019-02-27T01:09:32.109Z,40.73
2019-02-27T01:10:12.010Z,42.85
2019-02-27T01:10:45.938Z,39.15
2019-02-27T01:11:21.507Z,41.33
2019-02-27T01:11:57.002Z,37.73
2019-02-27T01:12:32.533Z,41.60
2019-02-27T01:13:07.865Z,41.10
2019-02-27T01:13:43.285Z,38.75
2019-02-27T01:14:18.854Z,39.90
2019-02-27T01:14:54.183Z,38.53
2019-02-27T01:15:29.656Z,37.33
2019-02-27T01:16:05.024Z,37.13
2019-02-27T01:16:40.346Z,38.42
2019-02-27T01:17:15.774Z,41.60
2019-02-27T01:17:51.316Z,40.15
2019-02-27T01:18:30.533Z,41.80
2019-02-27T01:19:04.655Z,41.15
2019-02-27T01:19:42.663Z,39.98
2019-02-27T01:20:17.919Z,41.80
2019-02-27T01:20:53.196Z,38.50
2019-02-27T01:21:28.610Z,39.40
2019-02-27T01:22:03.942Z,37.80
2019-02-27T01:22:39.343Z,40.48
2019-02-27T01:23:14.789Z,40.10
2019-02-27T01:23:50.132Z,37.13
2019-02-27T01:24:25.648Z,40.67
2019-02-27T01:25:01.295Z,39.15
2019-02-27T01:25:36.695Z,35.20
2019-02-27T01:26:12.055Z,38.48
2019-02-27T01:26:47.571Z,38.65
2019-02-27T01:27:23.038Z,37.55
2019-02-27T01:27:58.346Z,35.58
2019-02-27T01:28:33.863Z,38.55
2019-02-27T01:29:09.406Z,38.38
2019-02-27T01:29:45.029Z,35.58
2019-02-27T01:30:24.022Z,38.75
2019-02-27T01:30:57.699Z,39.40
2019-02-27T01:31:33.414Z,42.27
2019-02-27T01:32:08.819Z,38.98
2019-02-27T01:32:44.358Z,39.98
2019-02-27T01:33:19.759Z,37.50
2019-02-27T01:33:55.222Z,37.73
2019-02-27T01:34:30.654Z,38.00
2019-02-27T01:35:06.813Z,35.38
2019-02-27T01:35:42.130Z,37.17
2019-02-27T01:36:17.578Z,36.08
2019-02-27T01:36:54.914Z,34.03
2019-02-27T01:37:31.689Z,34.55
2019-02-27T01:38:07.218Z,35.73
2019-02-27T01:38:42.640Z,34.35
2019-02-27T01:39:18.074Z,32.25
2019-02-27T01:39:53.690Z,38.40
2019-02-27T01:40:29.256Z,30.85
2019-02-27T01:41:04.730Z,34.73
2019-02-27T01:41:40.319Z,39.05
2019-02-27T01:42:15.760Z,39.60
2019-02-27T01:42:51.699Z,38.80
2019-02-27T01:43:27.205Z,33.78
2019-02-27T01:44:02.874Z,34.50
2019-02-27T01:44:38.296Z,34.38
2019-02-27T01:45:20.738Z,35.68
2019-02-27T01:45:54.311Z,38.73
2019-02-27T01:46:30.002Z,39.63
2019-02-27T01:47:05.436Z,37.83
2019-02-27T01:47:41.124Z,41.20
2019-02-27T01:48:16.425Z,41.68
2019-02-27T01:48:51.715Z,41.77
2019-02-27T01:49:27.162Z,43.50
2019-02-27T01:50:02.574Z,43.58
2019-02-27T01:50:39.013Z,45.58
2019-02-27T01:51:14.475Z,45.25
2019-02-27T01:51:49.994Z,41.28
2019-02-27T01:52:25.544Z,42.08
2019-02-27T01:53:01.067Z,43.50
2019-02-27T01:53:37.938Z,42.30
2019-02-27T01:54:15.077Z,43.63
2019-02-27T01:54:50.649Z,43.65
2019-02-27T01:55:26.059Z,46.28
2019-02-27T01:56:01.511Z,42.80
2019-02-27T01:56:37.042Z,41.90
2019-02-27T01:57:12.449Z,44.58
2019-02-27T01:57:47.886Z,43.45
2019-02-27T01:58:23.326Z,43.98
2019-02-27T01:58:58.948Z,47.38
2019-02-27T01:59:34.496Z,48.78
2019-02-27T02:00:10.067Z,45.00
2019-02-27T02:00:45.775Z,48.68
2019-02-27T02:01:21.729Z,46.65
2019-02-27T02:01:57.041Z,50.83
2019-02-27T02:02:34.934Z,47.78
2019-02-27T02:03:11.190Z,47.13
2019-02-27T02:03:47.570Z,43.63
2019-02-27T02:04:23.046Z,40.38
2019-02-27T02:04:58.491Z,44.73
2019-02-27T02:05:34.031Z,45.75
2019-02-27T02:06:09.509Z,45.25
2019-02-27T02:06:44.891Z,46.45
2019-02-27T02:07:20.310Z,42.40
2019-02-27T02:07:56.137Z,43.00
2019-02-27T02:08:31.662Z,41.92
2019-02-27T02:09:30.039Z,41.65
2019-02-27T02:10:05.711Z,39.70
2019-02-27T02:10:41.111Z,35.95
2019-02-27T02:11:16.518Z,35.17
2019-02-27T02:11:51.963Z,33.90
2019-02-27T02:12:32.571Z,40.23
2019-02-27T02:13:15.203Z,36.75
2019-02-27T02:14:27.312Z,39.05
2019-02-27T02:15:36.221Z,35.78
2019-02-27T02:16:34.122Z,36.55
2019-02-27T02:17:32.440Z,36.23
2019-02-27T02:18:42.498Z,36.20
2019-02-27T02:19:53.975Z,33.80
2019-02-27T02:20:51.095Z,36.60
2019-02-27T02:21:52.335Z,37.13
2019-02-27T02:22:58.685Z,37.00
2019-02-27T02:23:54.235Z,39.45
2019-02-27T02:24:47.362Z,39.90
2019-02-27T02:25:38.840Z,40.55
2019-02-27T02:26:58.756Z,41.25
2019-02-27T02:28:36.000Z,41.48
2019-02-27T02:30:00.755Z,35.75
2019-02-27T02:31:23.938Z,37.55
2019-02-27T02:32:18.098Z,37.53
2019-02-27T02:33:16.968Z,43.45
2019-02-27T02:34:39.885Z,40.65
2019-02-27T02:35:42.192Z,49.45
2019-02-27T02:37:02.880Z,46.58
2019-02-27T02:38:12.019Z,38.38
2019-02-27T02:39:26.435Z,42.00
2019-02-27T02:40:34.342Z,41.25
2019-02-27T02:41:51.771Z,37.28
2019-02-27T02:43:04.246Z,42.00
2019-02-27T02:44:21.077Z,43.02
2019-02-27T02:45:52.187Z,44.88
2019-02-27T02:46:58.903Z,41.25
2019-02-27T02:48:10.426Z,41.25
2019-02-27T02:49:09.628Z,40.95
2019-02-27T02:50:17.713Z,43.17
2019-02-27T02:51:30.407Z,38.67
2019-02-27T02:52:28.840Z,40.28
2019-02-27T02:53:34.185Z,41.75
2019-02-27T02:55:11.921Z,36.05
2019-02-27T02:56:24.808Z,38.23
2019-02-27T02:57:26.052Z,41.48
2019-02-27T02:58:13.372Z,36.03
2019-02-27T02:59:24.953Z,40.12
2019-02-27T03:00:08.190Z,36.70
2019-02-27T03:01:14.146Z,36.48
2019-02-27T03:02:15.899Z,42.33
2019-02-27T03:03:37.657Z,37.28
2019-02-27T03:04:59.168Z,34.25
2019-02-27T03:06:10.758Z,32.20
2019-02-27T03:07:22.628Z,36.35
2019-02-27T03:08:31.227Z,35.78
2019-02-27T03:09:40.050Z,33.33
2019-02-27T03:10:49.599Z,37.70
2019-02-27T03:12:01.292Z,38.10
2019-02-27T03:13:08.602Z,37.93
2019-02-27T03:14:20.630Z,38.38
2019-02-27T03:15:28.406Z,37.33
2019-02-27T03:16:26.800Z,38.50
2019-02-27T03:17:25.002Z,35.23
2019-02-27T03:18:53.224Z,36.10
2019-02-27T03:20:03.469Z,38.65
2019-02-27T03:21:27.356Z,39.58
2019-02-27T03:22:24.262Z,40.38
2019-02-27T03:23:33.358Z,43.40
2019-02-27T03:24:35.756Z,44.93
2019-02-27T03:25:52.134Z,42.73
2019-02-27T03:26:59.207Z,42.58
2019-02-27T03:28:07.496Z,43.05
2019-02-27T03:29:04.746Z,46.85
2019-02-27T03:30:01.811Z,47.38
2019-02-27T03:31:03.194Z,47.15
2019-02-27T03:32:02.738Z,43.63
2019-02-27T03:32:56.010Z,44.67
2019-02-27T03:34:05.497Z,45.38
2019-02-27T03:35:35.226Z,43.63
2019-02-27T03:36:36.104Z,36.90
2019-02-27T03:37:58.387Z,38.88
2019-02-27T03:39:34.406Z,34.85
2019-02-27T03:40:57.172Z,35.95
2019-02-27T03:42:12.012Z,36.33
2019-02-27T03:43:11.503Z,37.53
2019-02-27T03:44:35.187Z,36.70
2019-02-27T03:45:34.150Z,33.23
2019-02-27T03:47:05.301Z,34.65
2019-02-27T03:48:27.550Z,32.85
2019-02-27T03:49:28.024Z,35.40
2019-02-27T03:50:56.703Z,34.67
2019-02-27T03:52:11.766Z,35.40
2019-02-27T03:53:16.582Z,32.33
2019-02-27T03:54:28.802Z,33.45
2019-02-27T03:55:47.843Z,33.95
2019-02-27T03:56:54.594Z,34.03
2019-02-27T03:58:10.601Z,33.95
2019-02-27T03:59:13.863Z,31.55
2019-02-27T04:00:37.721Z,37.23
2019-02-27T04:01:30.475Z,33.58
2019-02-27T04:02:45.049Z,33.45
2019-02-27T04:03:35.421Z,36.03
2019-02-27T04:04:35.861Z,33.67
2019-02-27T04:06:00.698Z,32.33
2019-02-27T04:07:19.885Z,34.63
2019-02-27T04:08:34.495Z,37.93
2019-02-27T04:09:10.260Z,33.80
2019-02-27T04:09:45.797Z,30.80
2019-02-27T04:10:21.301Z,29.60
2019-02-27T04:10:56.771Z,29.12
2019-02-27T04:11:32.071Z,30.52
2019-02-27T04:12:07.649Z,32.10
2019-02-27T04:12:43.247Z,31.62
2019-02-27T04:13:18.591Z,27.90
2019-02-27T04:13:54.315Z,30.02
2019-02-27T04:14:40.279Z,30.55
2019-02-27T04:15:11.110Z,27.77
2019-02-27T04:15:46.530Z,30.15
2019-02-27T04:16:21.910Z,31.48
2019-02-27T04:16:57.305Z,29.80
2019-02-27T04:17:30.673Z,35.70
2019-02-27T04:18:03.954Z,33.02
2019-02-27T04:18:37.231Z,31.57
2019-02-27T04:19:12.867Z,34.67
2019-02-27T04:19:48.529Z,33.18
2019-02-27T04:20:23.821Z,34.35
2019-02-27T04:21:00.553Z,33.50
2019-02-27T04:21:36.395Z,34.67
2019-02-27T04:22:11.776Z,44.42
2019-02-27T04:22:47.387Z,36.80
2019-02-27T04:23:22.843Z,34.88
2019-02-27T04:23:58.394Z,33.98
2019-02-27T04:24:33.795Z,31.25
2019-02-27T04:25:09.438Z,33.38
2019-02-27T04:25:44.867Z,30.55
2019-02-27T04:26:20.508Z,29.90
2019-02-27T04:26:56.109Z,29.98
2019-02-27T04:27:31.794Z,28.90
2019-02-27T04:28:07.307Z,29.87
2019-02-27T04:28:42.726Z,30.00
2019-02-27T04:29:18.260Z,31.20
2019-02-27T04:29:53.728Z,30.00
2019-02-27T04:30:29.009Z,31.10
2019-02-27T04:31:04.373Z,31.35
2019-02-27T04:31:39.874Z,32.33
2019-02-27T04:32:15.376Z,30.45
2019-02-27T04:32:50.834Z,28.57
2019-02-27T04:33:26.170Z,31.33
2019-02-27T04:34:01.607Z,31.57
2019-02-27T04:34:36.952Z,30.37
2019-02-27T04:35:12.578Z,27.67
2019-02-27T04:35:48.098Z,27.42
2019-02-27T04:36:23.521Z,26.12
2019-02-27T04:36:58.975Z,25.92
2019-02-27T04:37:34.374Z,26.48
2019-02-27T04:38:10.003Z,26.75
2019-02-27T04:38:46.405Z,27.05
2019-02-27T04:39:21.818Z,30.57
2019-02-27T04:39:57.304Z,34.33
2019-02-27T04:40:32.688Z,33.08
2019-02-27T04:41:08.109Z,31.85
2019-02-27T04:41:43.666Z,31.40
2019-02-27T04:42:19.238Z,27.42
2019-02-27T04:42:57.046Z,30.32
2019-02-27T04:43:32.295Z,28.95
2019-02-27T04:44:08.263Z,27.62
2019-02-27T04:44:43.780Z,26.68
2019-02-27T04:45:19.299Z,26.73
2019-02-27T04:45:54.735Z,28.07
2019-02-27T04:46:30.646Z,26.10
2019-02-27T04:47:06.089Z,26.57
2019-02-27T04:47:41.444Z,25.45
2019-02-27T04:48:16.937Z,26.75
2019-02-27T04:48:52.370Z,26.97
2019-02-27T04:49:27.938Z,29.32
2019-02-27T04:50:03.375Z,27.75
2019-02-27T04:50:38.698Z,26.68
2019-02-27T04:51:16.897Z,26.87
2019-02-27T04:51:51.198Z,26.17
2019-02-27T04:52:26.530Z,25.65
2019-02-27T04:53:01.887Z,26.40
2019-02-27T04:53:37.390Z,25.10
2019-02-27T04:54:12.812Z,27.17
2019-02-27T04:54:48.137Z,28.38
2019-02-27T04:55:23.555Z,30.35
2019-02-27T04:55:58.991Z,26.60
2019-02-27T04:56:34.445Z,32.90
2019-02-27T04:57:09.853Z,28.27
2019-02-27T04:57:45.266Z,26.10
2019-02-27T04:58:20.590Z,31.65
2019-02-27T04:58:56.071Z,29.72
2019-02-27T04:59:31.462Z,29.25
2019-02-27T05:00:07.140Z,29.90
2019-02-27T05:00:42.629Z,29.20
2019-02-27T05:01:18.059Z,30.97
2019-02-27T05:01:53.504Z,30.50
2019-02-27T05:02:28.932Z,31.10
2019-02-27T05:03:04.394Z,32.28
2019-02-27T05:03:39.854Z,33.45
2019-02-27T05:04:15.214Z,30.85
2019-02-27T05:04:50.659Z,28.60
2019-02-27T05:05:26.076Z,31.73
2019-02-27T05:06:01.416Z,31.48
2019-02-27T05:06:36.836Z,29.90
2019-02-27T05:07:12.268Z,28.02
2019-02-27T05:07:47.586Z,27.35
2019-02-27T05:08:26.890Z,27.25
2019-02-27T05:09:00.740Z,26.60
2019-02-27T05:09:36.237Z,29.72
2019-02-27T05:10:11.894Z,27.98
2019-02-27T05:10:47.295Z,26.62
2019-02-27T05:11:22.735Z,25.30
2019-02-27T05:11:58.075Z,29.00
2019-02-27T05:12:33.375Z,27.73
2019-02-27T05:13:08.843Z,29.42
2019-02-27T05:13:44.402Z,28.65
2019-02-27T05:14:19.974Z,28.95
2019-02-27T05:14:55.437Z,27.95
2019-02-27T05:15:30.754Z,31.00
2019-02-27T05:16:06.204Z,29.85
2019-02-27T05:16:41.513Z,30.05
2019-02-27T05:17:21.190Z,25.75
2019-02-27T05:17:55.668Z,26.70
2019-02-27T05:18:30.998Z,28.92
2019-02-27T05:19:06.429Z,30.75
2019-02-27T05:19:42.123Z,28.23
2019-02-27T05:20:17.603Z,28.27
2019-02-27T05:20:53.097Z,28.70
2019-02-27T05:21:28.533Z,26.87
2019-02-27T05:22:03.976Z,30.05
2019-02-27T05:22:39.308Z,26.25
2019-02-27T05:23:14.735Z,28.90
2019-02-27T05:23:50.513Z,29.87
2019-02-27T05:24:25.986Z,29.02
2019-02-27T05:25:01.450Z,30.32
2019-02-27T05:25:36.842Z,30.20
2019-02-27T05:26:12.297Z,28.17
2019-02-27T05:26:47.851Z,29.37
2019-02-27T05:27:23.347Z,28.55
2019-02-27T05:28:01.030Z,29.75
2019-02-27T05:28:35.854Z,30.95
2019-02-27T05:29:11.527Z,36.28
2019-02-27T05:29:46.922Z,39.18
2019-02-27T05:30:22.360Z,39.05
2019-02-27T05:30:57.799Z,49.33
2019-02-27T05:31:33.004Z,40.73
2019-02-27T05:32:08.484Z,36.17
2019-02-27T05:32:44.445Z,33.88
2019-02-27T05:33:19.795Z,34.67
2019-02-27T05:33:55.269Z,38.78
2019-02-27T05:34:30.762Z,35.03
2019-02-27T05:35:06.438Z,35.95
2019-02-27T05:35:41.809Z,34.63
2019-02-27T05:36:17.657Z,37.98
2019-02-27T05:36:53.107Z,38.45
2019-02-27T05:37:28.651Z,37.45
2019-02-27T05:38:04.164Z,37.90
2019-02-27T05:38:40.978Z,32.93
2019-02-27T05:39:17.320Z,30.88
2019-02-27T05:39:53.523Z,34.92
2019-02-27T05:40:28.983Z,36.38
2019-02-27T05:41:04.470Z,38.75
2019-02-27T05:41:39.969Z,34.70
2019-02-27T05:42:15.666Z,35.17
2019-02-27T05:42:51.094Z,36.60
2019-02-27T05:43:26.409Z,32.67
2019-02-27T05:44:02.265Z,35.28
2019-02-27T05:44:37.694Z,35.03
2019-02-27T05:45:13.813Z,33.60
2019-02-27T05:45:49.293Z,34.03
2019-02-27T05:46:25.947Z,33.85
2019-02-27T05:47:01.498Z,32.55
2019-02-27T05:47:36.790Z,33.75
2019-02-27T05:48:12.231Z,32.33
2019-02-27T05:48:47.650Z,31.75
2019-02-27T05:49:26.596Z,34.90
2019-02-27T05:50:00.639Z,31.95
2019-02-27T05:50:37.097Z,33.35
2019-02-27T05:51:13.069Z,36.25
2019-02-27T05:51:48.666Z,34.60
2019-02-27T05:52:24.682Z,33.88
2019-02-27T05:53:00.079Z,33.35
2019-02-27T05:53:35.515Z,34.90
2019-02-27T05:54:10.987Z,35.00
2019-02-27T05:54:47.072Z,33.73
2019-02-27T05:55:22.441Z,33.88
2019-02-27T05:55:58.564Z,35.63
2019-02-27T05:56:34.006Z,36.15
2019-02-27T05:57:09.463Z,35.63
2019-02-27T05:57:44.856Z,34.67
2019-02-27T05:58:22.837Z,36.83
2019-02-27T05:58:57.682Z,36.03
2019-02-27T05:59:33.105Z,35.55
2019-02-27T06:00:12.305Z,37.98
2019-02-27T06:00:48.300Z,36.88
2019-02-27T06:01:23.600Z,36.53
2019-02-27T06:01:59.089Z,38.40
2019-02-27T06:02:34.538Z,37.25
2019-02-27T06:03:10.168Z,39.83
2019-02-27T06:03:45.508Z,39.15
2019-02-27T06:04:24.965Z,41.50
2019-02-27T06:04:59.044Z,41.23
2019-02-27T06:05:35.913Z,43.87
2019-02-27T06:06:12.451Z,43.87
2019-02-27T06:06:48.026Z,44.23
2019-02-27T06:07:23.561Z,42.48
2019-02-27T06:08:02.053Z,42.13
2019-02-27T06:08:38.090Z,44.83
2019-02-27T06:09:13.319Z,42.73
2019-02-27T06:09:49.092Z,41.83
2019-02-27T06:10:24.422Z,43.05
2019-02-27T06:10:59.890Z,43.42
2019-02-27T06:11:35.320Z,47.00
2019-02-27T06:12:10.898Z,47.70
2019-02-27T06:12:47.638Z,49.90
2019-02-27T06:13:23.042Z,48.68
2019-02-27T06:13:58.484Z,50.30
2019-02-27T06:14:34.017Z,49.67
2019-02-27T06:15:12.886Z,51.70
2019-02-27T06:15:49.265Z,48.68
2019-02-27T06:16:24.753Z,47.98
2019-02-27T06:17:00.075Z,50.33
2019-02-27T06:17:43.141Z,47.83
2019-02-27T06:18:12.545Z,48.08
2019-02-27T06:18:48.180Z,44.88
2019-02-27T06:19:23.888Z,44.00
2019-02-27T06:19:59.324Z,45.38
2019-02-27T06:20:34.886Z,44.03
2019-02-27T06:21:10.406Z,43.48
2019-02-27T06:21:46.061Z,43.75
2019-02-27T06:22:21.505Z,41.80
2019-02-27T06:22:57.307Z,44.58
2019-02-27T06:23:35.306Z,42.48
2019-02-27T06:24:12.539Z,40.28
2019-02-27T06:24:47.713Z,37.55
2019-02-27T06:25:23.942Z,37.55
2019-02-27T06:26:00.254Z,36.85
2019-02-27T06:26:35.835Z,35.25
2019-02-27T06:27:11.323Z,35.88
2019-02-27T06:27:46.594Z,38.02
2019-02-27T06:28:22.133Z,35.43
2019-02-27T06:28:57.536Z,35.13
2019-02-27T06:29:33.004Z,32.20
2019-02-27T06:30:10.123Z,32.42
2019-02-27T06:30:45.551Z,32.25
2019-02-27T06:31:21.143Z,32.25
2019-02-27T06:31:56.581Z,34.08
2019-02-27T06:32:31.875Z,35.68
2019-02-27T06:33:11.643Z,34.30
2019-02-27T06:33:45.736Z,31.80
2019-02-27T06:34:22.337Z,31.73
2019-02-27T06:34:59.457Z,32.93
2019-02-27T06:35:35.618Z,29.02
2019-02-27T06:36:10.999Z,30.88
2019-02-27T06:36:46.532Z,29.42
2019-02-27T06:37:22.022Z,29.30
2019-02-27T06:37:57.531Z,29.85
2019-02-27T06:38:32.943Z,32.28
2019-02-27T06:39:08.891Z,30.32
2019-02-27T06:39:44.405Z,30.08
2019-02-27T06:40:19.733Z,32.30
2019-02-27T06:40:55.170Z,33.73
2019-02-27T06:41:30.690Z,31.25
2019-02-27T06:42:06.179Z,33.08
2019-02-27T06:42:41.962Z,34.80
2019-02-27T06:43:17.410Z,29.67
2019-02-27T06:43:52.826Z,61.50
2019-02-27T06:44:28.565Z,91.95
2019-02-27T06:45:04.122Z,53.20
2019-02-27T06:45:39.729Z,43.87
2019-02-27T06:46:17.376Z,39.63
2019-02-27T06:46:53.744Z,34.40
2019-02-27T06:47:29.250Z,31.37
2019-02-27T06:48:09.451Z,34.90
2019-02-27T06:48:43.546Z,32.55
2019-02-27T06:49:19.084Z,30.88
2019-02-27T06:49:54.497Z,30.32
2019-02-27T06:50:29.956Z,32.13
2019-02-27T06:51:05.397Z,29.77
2019-02-27T06:51:40.777Z,29.27
2019-02-27T06:52:16.397Z,30.08
2019-02-27T06:52:51.817Z,28.90
2019-02-27T06:53:27.397Z,29.27
2019-02-27T06:54:03.093Z,28.83
2019-02-27T06:54:38.673Z,28.73
2019-02-27T06:55:14.250Z,29.35
2019-02-27T06:55:49.522Z,28.45
2019-02-27T06:56:24.886Z,28.65
2019-02-27T06:57:00.291Z,29.82
2019-02-27T06:57:35.872Z,29.65
2019-02-27T06:58:14.410Z,28.30
2019-02-27T06:58:50.117Z,28.75
2019-02-27T06:59:25.746Z,28.87
2019-02-27T07:00:02.952Z,27.75
2019-02-27T07:00:38.203Z,29.07
2019-02-27T07:01:13.529Z,29.65
2019-02-27T07:01:48.950Z,29.60
2019-02-27T07:02:24.371Z,29.35
2019-02-27T07:03:00.163Z,30.92
2019-02-27T07:03:35.459Z,30.77
2019-02-27T07:04:10.883Z,30.92
2019-02-27T07:04:46.226Z,30.57
2019-02-27T07:05:21.627Z,28.92
2019-02-27T07:05:57.166Z,30.30
2019-02-27T07:06:32.606Z,28.42
2019-02-27T07:07:08.149Z,29.57
2019-02-27T07:07:43.626Z,28.10
2019-02-27T07:08:19.398Z,28.40
2019-02-27T07:08:54.846Z,28.35
2019-02-27T07:09:30.641Z,27.02
2019-02-27T07:10:07.025Z,28.62
2019-02-27T07:10:42.532Z,28.92
2019-02-27T07:11:18.126Z,29.15
2019-02-27T07:11:54.066Z,29.55
2019-02-27T07:12:29.446Z,29.75
2019-02-27T07:13:05.036Z,29.23
2019-02-27T07:13:40.696Z,28.77
2019-02-27T07:14:16.474Z,29.50
2019-02-27T07:14:51.927Z,29.18
2019-02-27T07:15:27.216Z,29.40
2019-02-27T07:16:03.300Z,30.23
2019-02-27T07:16:39.071Z,28.52
2019-02-27T07:17:14.657Z,30.68
2019-02-27T07:17:50.892Z,29.90
2019-02-27T07:18:26.627Z,28.92
2019-02-27T07:19:02.089Z,28.90
2019-02-27T07:19:37.526Z,29.35
2019-02-27T07:20:13.481Z,27.95
2019-02-27T07:20:48.968Z,27.93
2019-02-27T07:21:24.505Z,29.50
2019-02-27T07:22:00.006Z,30.05
2019-02-27T07:22:35.522Z,28.50
2019-02-27T07:23:11.109Z,29.10
2019-02-27T07:23:46.786Z,29.77
2019-02-27T07:24:22.402Z,29.98
2019-02-27T07:24:57.911Z,30.08
2019-02-27T07:25:33.331Z,30.00
2019-02-27T07:26:08.827Z,31.30
2019-02-27T07:26:47.534Z,28.47
2019-02-27T07:27:21.716Z,30.02
2019-02-27T07:27:57.289Z,30.65
2019-02-27T07:28:32.738Z,32.93
2019-02-27T07:29:08.390Z,30.08
2019-02-27T07:29:43.919Z,29.25
2019-02-27T07:30:19.863Z,28.87
2019-02-27T07:30:55.303Z,30.82
2019-02-27T07:31:30.852Z,30.90
2019-02-27T07:32:06.247Z,31.10
2019-02-27T07:32:41.853Z,30.05
2019-02-27T07:33:17.490Z,32.05
2019-02-27T07:33:52.964Z,31.62
2019-02-27T07:34:28.491Z,30.68
2019-02-27T07:35:03.847Z,30.32
2019-02-27T07:35:39.154Z,30.32
2019-02-27T07:36:14.596Z,33.23
2019-02-27T07:36:50.032Z,30.12
2019-02-27T07:37:25.629Z,31.97
2019-02-27T07:38:01.224Z,32.20
2019-02-27T07:38:36.612Z,32.53
2019-02-27T07:39:12.229Z,32.10
2019-02-27T07:39:47.752Z,30.95
2019-02-27T07:40:23.025Z,31.27
2019-02-27T07:40:58.405Z,32.65
2019-02-27T07:41:33.953Z,33.33
2019-02-27T07:42:09.365Z,34.65
2019-02-27T07:42:45.035Z,33.00
2019-02-27T07:43:20.324Z,33.75
2019-02-27T07:43:55.830Z,31.33
2019-02-27T07:44:32.238Z,33.05
2019-02-27T07:45:10.647Z,31.27
2019-02-27T07:45:46.240Z,31.35
2019-02-27T07:46:22.430Z,30.50
2019-02-27T07:46:58.548Z,32.78
2019-02-27T07:47:34.251Z,30.30
2019-02-27T07:48:09.581Z,30.40
2019-02-27T07:48:44.870Z,33.05
2019-02-27T07:49:20.493Z,33.95
2019-02-27T07:49:56.010Z,40.05
2019-02-27T07:50:32.588Z,36.98
2019-02-27T07:51:08.240Z,40.70
2019-02-27T07:51:43.669Z,32.55
2019-02-27T07:52:19.161Z,34.70
2019-02-27T07:52:54.928Z,33.23
2019-02-27T07:53:30.856Z,34.43
2019-02-27T07:54:06.330Z,32.20
2019-02-27T07:54:41.649Z,31.23
2019-02-27T07:55:21.877Z,30.05
2019-02-27T07:55:54.850Z,27.42
2019-02-27T07:56:30.352Z,28.47
2019-02-27T07:57:06.006Z,27.45
2019-02-27T07:57:41.331Z,30.43
2019-02-27T07:58:16.861Z,27.05
2019-02-27T07:58:52.383Z,27.90
2019-02-27T07:59:27.862Z,26.62
2019-02-27T08:00:03.300Z,25.20
2019-02-27T08:00:38.802Z,25.77
2019-02-27T08:01:14.237Z,26.02
2019-02-27T08:01:49.673Z,25.92
2019-02-27T08:02:25.214Z,25.37
2019-02-27T08:03:01.226Z,26.97
2019-02-27T08:03:36.705Z,25.90
2019-02-27T08:04:12.322Z,25.43
2019-02-27T08:04:47.730Z,25.70
2019-02-27T08:05:28.283Z,27.48
2019-02-27T08:06:02.476Z,24.25
2019-02-27T08:06:37.731Z,25.37
2019-02-27T08:07:13.928Z,24.27
2019-02-27T08:07:49.920Z,26.57
2019-02-27T08:08:25.430Z,25.02
2019-02-27T08:09:00.790Z,25.12
2019-02-27T08:09:36.167Z,23.60
2019-02-27T08:10:16.707Z,22.20
2019-02-27T08:10:52.047Z,22.73
2019-02-27T08:11:27.417Z,25.05
2019-02-27T08:12:02.992Z,24.43
2019-02-27T08:12:38.682Z,23.35
2019-02-27T08:13:14.405Z,25.43
2019-02-27T08:13:50.207Z,25.15
2019-02-27T08:14:26.008Z,25.55
2019-02-27T08:15:01.850Z,25.65
2019-02-27T08:15:37.402Z,25.08
2019-02-27T08:16:13.072Z,26.05
2019-02-27T08:16:48.718Z,25.17
2019-02-27T08:17:24.288Z,22.62
2019-02-27T08:17:59.945Z,22.65
2019-02-27T08:18:37.653Z,22.37
2019-02-27T08:19:12.519Z,21.02
2019-02-27T08:19:48.158Z,22.45
2019-02-27T08:20:23.672Z,21.87
2019-02-27T08:20:59.302Z,20.27
2019-02-27T08:21:34.679Z,20.95
2019-02-27T08:22:10.777Z,22.20
2019-02-27T08:22:46.211Z,21.17
2019-02-27T08:23:21.678Z,21.85
2019-02-27T08:23:57.394Z,21.60
2019-02-27T08:24:33.803Z,21.40
2019-02-27T08:25:10.189Z,21.60
2019-02-27T08:25:45.681Z,22.42
2019-02-27T08:26:21.451Z,21.52
2019-02-27T08:26:56.899Z,21.30
2019-02-27T08:27:32.230Z,20.95
2019-02-27T08:28:07.740Z,19.62
2019-02-27T08:28:44.101Z,19.42
2019-02-27T08:29:19.782Z,20.10
2019-02-27T08:29:55.371Z,20.77
2019-02-27T08:30:30.703Z,21.93
2019-02-27T08:31:06.162Z,20.62
2019-02-27T08:31:41.759Z,22.22
2019-02-27T08:32:17.189Z,21.27
2019-02-27T08:32:52.517Z,29.40
2019-02-27T08:33:28.453Z,27.95
2019-02-27T08:34:04.338Z,25.00
2019-02-27T08:34:39.632Z,27.07
2019-02-27T08:35:16.711Z,21.97
2019-02-27T08:35:52.427Z,21.65
2019-02-27T08:36:27.929Z,26.65
2019-02-27T08:37:03.302Z,29.10